createdAt,value
2019-03-20T00:01:43.649Z,22.10
2019-03-20T00:04:07.158Z,22.10
2019-03-20T00:06:33.236Z,22.00
2019-03-20T00:08:59.532Z,22.10
2019-03-20T00:11:25.617Z,22.10
2019-03-20T00:13:51.992Z,22.00
2019-03-20T00:18:44.447Z,22.00
2019-03-20T00:21:10.880Z,22.00
2019-03-20T00:23:36.923Z,21.90
2019-03-20T00:28:29.764Z,21.90
2019-03-20T00:30:56.095Z,21.90
2019-03-20T00:35:49.165Z,21.80
2019-03-20T00:38:15.214Z,21.80
2019-03-20T00:40:41.292Z,21.80
2019-03-20T00:43:07.340Z,21.80
2019-03-20T00:45:33.415Z,21.80
2019-03-20T00:47:59.458Z,21.80
2019-03-20T00:50:25.807Z,21.70
2019-03-20T00:52:51.887Z,21.70
2019-03-20T00:55:19.667Z,21.70
2019-03-20T00:57:46.642Z,21.70
2019-03-20T01:00:25.621Z,21.70
2019-03-20T01:02:52.717Z,21.60
2019-03-20T01:05:20.803Z,21.60
2019-03-20T01:07:47.420Z,21.60
2019-03-20T01:10:24.305Z,21.60
2019-03-20T01:12:50.349Z,21.60
2019-03-20T01:15:16.495Z,21.50
2019-03-20T01:20:24.315Z,21.50
2019-03-20T01:22:50.609Z,21.40
2019-03-20T01:25:18.856Z,21.50
2019-03-20T01:30:29.145Z,21.40
2019-03-20T01:32:55.226Z,21.40
2019-03-20T01:35:24.018Z,21.40
2019-03-20T01:40:16.300Z,21.40
2019-03-20T01:45:09.201Z,21.30
2019-03-20T01:47:35.613Z,21.30
2019-03-20T01:52:29.971Z,21.20
2019-03-20T01:59:48.952Z,21.20
2019-03-20T02:02:15.004Z,21.20
2019-03-20T02:04:41.060Z,21.20
2019-03-20T02:07:07.136Z,21.20
2019-03-20T02:09:33.188Z,21.10
2019-03-20T02:11:59.258Z,21.10
2019-03-20T02:14:25.332Z,21.10
2019-03-20T02:16:51.380Z,21.00
2019-03-20T02:21:43.945Z,21.10
2019-03-20T02:24:10.700Z,21.00
2019-03-20T02:26:36.779Z,21.00
2019-03-20T02:29:03.316Z,20.90
2019-03-20T02:31:29.447Z,21.00
2019-03-20T02:33:55.883Z,20.90
2019-03-20T02:36:22.197Z,20.90
2019-03-20T02:38:48.307Z,20.90
2019-03-20T02:41:14.381Z,20.90
2019-03-20T02:43:40.425Z,20.90
2019-03-20T02:46:06.473Z,20.80
2019-03-20T02:48:38.333Z,20.80
2019-03-20T02:55:57.329Z,20.80
2019-03-20T02:58:23.409Z,20.70
2019-03-20T03:00:49.461Z,20.70
2019-03-20T03:05:42.255Z,20.70
2019-03-20T03:08:08.299Z,20.60
2019-03-20T03:10:35.047Z,20.60
2019-03-20T03:13:01.142Z,20.60
2019-03-20T03:15:27.188Z,20.60
2019-03-20T03:20:19.688Z,20.60
2019-03-20T03:22:45.725Z,20.50
2019-03-20T03:25:14.011Z,20.50
2019-03-20T03:27:40.162Z,20.50
2019-03-20T03:30:11.941Z,20.50
2019-03-20T03:32:38.077Z,20.50
2019-03-20T03:35:05.277Z,20.40
2019-03-20T03:37:31.604Z,20.40
2019-03-20T03:39:57.686Z,20.40
2019-03-20T03:42:24.062Z,20.40
2019-03-20T03:44:50.419Z,20.30
2019-03-20T03:52:09.339Z,20.30
2019-03-20T03:54:35.404Z,20.20
2019-03-20T03:57:02.046Z,20.30
2019-03-20T03:59:28.489Z,20.20
2019-03-20T04:01:54.628Z,20.20
2019-03-20T04:04:21.031Z,20.20
2019-03-20T04:06:47.078Z,20.20
2019-03-20T04:09:13.480Z,20.20
2019-03-20T04:11:39.824Z,20.20
2019-03-20T04:14:06.251Z,20.10
2019-03-20T04:16:32.577Z,20.10
2019-03-20T04:18:58.649Z,20.10
2019-03-20T04:21:24.727Z,20.10
2019-03-20T04:23:50.956Z,20.00
2019-03-20T04:26:17.397Z,20.00
2019-03-20T04:31:10.224Z,20.00
2019-03-20T04:33:36.273Z,20.00
2019-03-20T04:36:02.377Z,20.00
2019-03-20T04:38:28.725Z,19.90
2019-03-20T04:40:54.788Z,20.00
2019-03-20T04:43:20.864Z,19.90
2019-03-20T04:45:46.912Z,19.90
2019-03-20T04:50:39.431Z,19.90
2019-03-20T04:53:05.515Z,19.90
2019-03-20T04:55:31.576Z,19.90
2019-03-20T04:57:57.657Z,19.90
2019-03-20T05:00:23.739Z,19.90
2019-03-20T05:02:49.790Z,19.90
2019-03-20T05:05:15.856Z,19.90
2019-03-20T05:07:41.936Z,19.90
2019-03-20T05:10:13.374Z,19.90
2019-03-20T05:12:39.455Z,19.90
2019-03-20T05:15:09.370Z,19.80
2019-03-20T05:17:35.544Z,19.90
2019-03-20T05:20:04.315Z,19.80
2019-03-20T05:22:30.415Z,19.80
2019-03-20T05:24:56.463Z,19.80
2019-03-20T05:27:22.511Z,19.80
2019-03-20T05:29:48.917Z,19.80
2019-03-20T05:32:14.964Z,19.80
2019-03-20T05:34:41.036Z,19.80
2019-03-20T05:37:10.611Z,19.70
2019-03-20T05:39:35.380Z,19.70
2019-03-20T05:42:01.444Z,19.70
2019-03-20T05:44:27.547Z,19.70
2019-03-20T05:46:53.588Z,19.70
2019-03-20T05:49:19.631Z,19.60
2019-03-20T05:51:45.741Z,19.60
2019-03-20T05:56:38.204Z,19.60
2019-03-20T05:59:04.316Z,19.60
2019-03-20T06:01:30.720Z,19.60
2019-03-20T06:03:56.767Z,19.60
2019-03-20T06:06:22.870Z,19.60
2019-03-20T06:08:49.019Z,19.50
2019-03-20T06:11:15.079Z,19.60
2019-03-20T06:13:41.419Z,19.50
2019-03-20T06:16:07.916Z,19.50
2019-03-20T06:18:34.093Z,19.50
2019-03-20T06:21:00.540Z,19.50
2019-03-20T06:23:26.625Z,19.50
2019-03-20T06:28:19.128Z,19.60
2019-03-20T06:30:45.545Z,19.60
2019-03-20T06:33:11.961Z,19.60
2019-03-20T06:35:38.527Z,19.60
2019-03-20T06:40:31.055Z,19.70
2019-03-20T06:42:57.096Z,19.60
2019-03-20T06:45:23.221Z,19.60
2019-03-20T06:47:49.267Z,19.60
2019-03-20T06:52:45.791Z,19.50
2019-03-20T06:55:12.732Z,19.50
2019-03-20T07:02:52.608Z,19.40
2019-03-20T07:07:47.604Z,19.30
2019-03-20T07:10:20.496Z,19.40
2019-03-20T07:12:46.573Z,19.40
2019-03-20T07:15:12.643Z,19.40
2019-03-20T07:22:34.840Z,19.30
2019-03-20T07:25:01.244Z,19.30
2019-03-20T07:27:27.348Z,19.30
2019-03-20T07:29:53.391Z,19.30
2019-03-20T07:32:19.463Z,19.30
2019-03-20T07:34:45.540Z,19.30
2019-03-20T07:39:38.036Z,19.30
2019-03-20T07:42:04.421Z,19.30
2019-03-20T07:46:57.484Z,19.30
2019-03-20T07:51:50.555Z,19.30
2019-03-20T07:54:16.609Z,19.30
2019-03-20T07:59:09.136Z,19.30
2019-03-20T08:01:35.573Z,19.30
2019-03-20T08:04:01.645Z,19.30
2019-03-20T08:06:27.771Z,19.30
2019-03-20T08:08:54.157Z,19.30
2019-03-20T08:11:20.476Z,19.30
2019-03-20T08:13:47.048Z,19.30
2019-03-20T08:16:13.544Z,19.30
2019-03-20T08:18:39.629Z,19.30
2019-03-20T08:21:05.805Z,19.40
2019-03-20T08:23:31.860Z,19.40
2019-03-20T08:25:58.156Z,19.30
2019-03-20T08:28:24.228Z,19.40
2019-03-20T08:33:16.749Z,19.40
2019-03-20T08:35:42.798Z,19.40
2019-03-20T08:38:17.727Z,19.40
2019-03-20T08:43:09.655Z,19.50
2019-03-20T08:45:36.105Z,19.50
2019-03-20T08:53:14.300Z,19.60
2019-03-20T09:00:51.447Z,19.50
2019-03-20T09:03:17.760Z,19.50
2019-03-20T09:05:43.860Z,19.60
2019-03-20T09:10:36.364Z,19.70
2019-03-20T09:13:02.898Z,19.70
2019-03-20T09:15:29.084Z,19.70
2019-03-20T09:17:55.271Z,19.80
2019-03-20T09:20:23.661Z,19.70
2019-03-20T09:25:21.060Z,19.80
2019-03-20T09:27:47.157Z,19.80
2019-03-20T09:30:21.814Z,19.90
2019-03-20T09:32:49.355Z,19.90
2019-03-20T09:35:15.927Z,19.90
2019-03-20T09:37:51.283Z,19.90
2019-03-20T09:40:14.784Z,19.90
2019-03-20T09:42:40.832Z,19.90
2019-03-20T09:45:10.954Z,20.00
2019-03-20T09:50:07.300Z,20.00
2019-03-20T09:52:33.344Z,20.10
2019-03-20T09:54:59.400Z,20.10
2019-03-20T09:57:25.503Z,20.10
2019-03-20T09:59:52.628Z,20.10
2019-03-20T10:02:18.716Z,20.20
2019-03-20T10:04:44.776Z,20.20
2019-03-20T10:07:11.191Z,20.20
2019-03-20T10:09:37.292Z,20.30
2019-03-20T10:12:04.824Z,20.30
2019-03-20T10:16:57.949Z,20.30
2019-03-20T10:19:24.079Z,20.30
2019-03-20T10:24:16.528Z,20.20
2019-03-20T10:31:35.752Z,20.20
2019-03-20T10:34:01.842Z,20.30
2019-03-20T10:36:27.946Z,20.30
2019-03-20T10:39:05.716Z,20.30
2019-03-20T10:41:22.112Z,20.40
2019-03-20T10:46:15.408Z,20.40
2019-03-20T10:48:41.908Z,20.40
2019-03-20T10:53:35.229Z,20.50
2019-03-20T10:56:01.323Z,20.50
2019-03-20T10:58:27.569Z,20.50
2019-03-20T11:00:54.073Z,20.50
2019-03-20T11:03:20.324Z,20.60
2019-03-20T11:05:46.847Z,20.60
2019-03-20T11:08:13.386Z,20.60
2019-03-20T11:10:40.126Z,20.70
2019-03-20T11:15:32.869Z,20.70
2019-03-20T11:20:25.960Z,20.70
2019-03-20T11:22:53.803Z,20.70
2019-03-20T11:27:50.589Z,20.70
2019-03-20T11:30:19.967Z,20.70
2019-03-20T11:32:46.183Z,20.70
2019-03-20T11:35:12.511Z,20.70
2019-03-20T11:37:39.600Z,20.80
2019-03-20T11:40:15.177Z,20.90
2019-03-20T11:42:41.581Z,20.90
2019-03-20T11:50:05.964Z,20.90
2019-03-20T11:52:32.187Z,21.00
2019-03-20T11:54:58.422Z,21.00
2019-03-20T11:57:24.664Z,21.00
2019-03-20T11:59:51.176Z,21.00
2019-03-20T12:02:27.659Z,21.10
2019-03-20T12:04:46.087Z,21.10
2019-03-20T12:07:12.177Z,21.10
2019-03-20T12:09:41.324Z,21.20
2019-03-20T12:12:06.920Z,21.20
2019-03-20T12:14:33.003Z,21.20
2019-03-20T12:16:59.479Z,21.20
2019-03-20T12:19:25.915Z,21.20
2019-03-20T12:21:52.452Z,21.20
2019-03-20T12:24:18.985Z,21.30
2019-03-20T12:26:45.247Z,21.30
2019-03-20T12:29:11.438Z,21.30
2019-03-20T12:31:37.576Z,21.40
2019-03-20T12:34:03.991Z,21.40
2019-03-20T12:36:30.079Z,21.40
2019-03-20T12:41:22.757Z,21.40
2019-03-20T12:46:15.667Z,21.50
2019-03-20T12:48:41.847Z,21.50
2019-03-20T12:53:35.224Z,21.60
2019-03-20T12:58:28.211Z,21.60
2019-03-20T13:00:54.728Z,21.70
2019-03-20T13:03:21.113Z,21.70
2019-03-20T13:05:47.509Z,21.70
2019-03-20T13:08:13.995Z,21.70
2019-03-20T13:10:40.381Z,21.80
2019-03-20T13:13:06.640Z,21.70
2019-03-20T13:17:59.887Z,21.80
2019-03-20T13:20:25.987Z,21.90
2019-03-20T13:23:13.424Z,21.80
2019-03-20T13:25:39.862Z,21.80
2019-03-20T13:28:06.039Z,21.80
2019-03-20T13:30:36.608Z,21.90
2019-03-20T13:33:04.039Z,21.90
2019-03-20T13:35:30.505Z,21.90
2019-03-20T13:37:56.723Z,21.90
2019-03-20T13:40:23.161Z,21.90
2019-03-20T13:42:49.405Z,21.90
2019-03-20T13:45:19.340Z,21.90
2019-03-20T13:50:14.204Z,21.90
2019-03-20T13:52:40.750Z,21.90
2019-03-20T13:57:35.078Z,21.90
2019-03-20T14:00:01.468Z,21.90
2019-03-20T14:02:27.677Z,21.90
2019-03-20T14:07:20.571Z,22.00
2019-03-20T14:09:46.765Z,22.00
2019-03-20T14:12:12.947Z,22.00
2019-03-20T14:14:39.072Z,22.00
2019-03-20T14:19:31.715Z,22.00
2019-03-20T14:21:57.858Z,22.00
2019-03-20T14:24:23.943Z,22.00
2019-03-20T14:29:17.132Z,22.10
2019-03-20T14:31:43.268Z,22.10
2019-03-20T14:36:36.532Z,22.10
2019-03-20T14:39:05.480Z,22.10
2019-03-20T14:41:31.667Z,22.10
2019-03-20T14:43:57.895Z,22.10
2019-03-20T14:46:23.983Z,22.10
2019-03-20T14:51:16.923Z,22.10
2019-03-20T14:53:43.067Z,22.20
2019-03-20T14:56:09.164Z,22.20
2019-03-20T15:01:01.783Z,22.20
2019-03-20T15:03:27.996Z,22.30
2019-03-20T15:05:54.531Z,22.20
2019-03-20T15:08:20.963Z,22.20
2019-03-20T15:10:47.395Z,22.20
2019-03-20T15:13:13.484Z,22.30
2019-03-20T15:15:46.408Z,22.30
2019-03-20T15:18:12.668Z,22.30
2019-03-20T15:20:38.852Z,22.30
2019-03-20T15:23:04.934Z,22.30
2019-03-20T15:25:31.087Z,22.30
2019-03-20T15:27:57.176Z,22.30
2019-03-20T15:32:50.881Z,22.30
2019-03-20T15:35:16.972Z,22.20
2019-03-20T15:37:43.115Z,22.30
2019-03-20T15:40:20.468Z,22.30
2019-03-20T15:45:15.664Z,22.30
2019-03-20T15:47:43.335Z,22.30
2019-03-20T15:50:15.517Z,22.30
2019-03-20T15:52:42.372Z,22.30
2019-03-20T15:55:12.415Z,22.30
2019-03-20T16:00:17.597Z,22.30
2019-03-20T16:02:45.481Z,22.20
2019-03-20T16:05:12.598Z,22.00
2019-03-20T16:10:09.692Z,21.90
2019-03-20T16:12:35.844Z,21.90
2019-03-20T16:15:04.435Z,22.00
2019-03-20T16:17:30.619Z,22.00
2019-03-20T16:19:58.732Z,22.00
2019-03-20T16:22:24.823Z,22.00
2019-03-20T16:24:51.063Z,22.00
2019-03-20T16:32:10.687Z,21.90
2019-03-20T16:34:36.874Z,21.90
2019-03-20T16:37:03.316Z,21.90
2019-03-20T16:39:29.568Z,21.80
2019-03-20T16:41:55.752Z,21.80
2019-03-20T16:44:22.485Z,21.80
2019-03-20T16:46:49.045Z,21.70
2019-03-20T16:51:41.688Z,21.70
2019-03-20T16:54:08.231Z,21.70
2019-03-20T16:56:34.416Z,21.70
2019-03-20T17:06:20.168Z,21.50
2019-03-20T17:08:46.260Z,21.50
2019-03-20T17:13:38.868Z,21.50
2019-03-20T17:16:05.060Z,21.50
2019-03-20T17:18:31.207Z,21.40
2019-03-20T17:20:58.018Z,21.40
2019-03-20T17:23:25.116Z,21.40
2019-03-20T17:25:51.267Z,21.40
2019-03-20T17:28:17.352Z,21.40
2019-03-20T17:30:46.939Z,21.30
2019-03-20T17:33:13.508Z,21.30
2019-03-20T17:35:39.816Z,21.30
2019-03-20T17:40:32.908Z,21.30
2019-03-20T17:42:59.081Z,21.20
2019-03-20T17:45:26.672Z,21.20
2019-03-20T17:47:53.227Z,21.10
2019-03-20T17:50:29.247Z,21.10
2019-03-20T17:52:56.390Z,21.10
2019-03-20T17:55:22.639Z,21.10
2019-03-20T17:57:48.994Z,21.00
2019-03-20T18:00:20.564Z,21.10
2019-03-20T18:12:32.739Z,20.90
2019-03-20T18:14:58.837Z,20.90
2019-03-20T18:17:24.988Z,20.90
2019-03-20T18:19:51.167Z,20.90
2019-03-20T18:27:10.784Z,20.80
2019-03-20T18:32:03.632Z,20.80
2019-03-20T18:34:30.188Z,20.80
2019-03-20T18:36:56.272Z,20.70
2019-03-20T18:41:57.385Z,20.70
2019-03-20T18:44:16.993Z,20.70
2019-03-20T18:46:44.077Z,20.70
2019-03-20T18:49:10.216Z,20.60
2019-03-20T18:51:36.609Z,20.60
2019-03-20T18:54:03.761Z,20.60
2019-03-20T18:56:29.904Z,20.60
2019-03-20T18:58:55.957Z,20.60
2019-03-20T19:01:22.080Z,20.60
2019-03-20T19:03:48.232Z,20.60
2019-03-20T19:06:21.892Z,20.50
2019-03-20T19:08:47.945Z,20.50
2019-03-20T19:11:14.591Z,20.50
2019-03-20T19:13:40.813Z,20.50
2019-03-20T19:21:00.024Z,20.40
2019-03-20T19:23:26.072Z,20.40
2019-03-20T19:25:52.188Z,20.40
2019-03-20T19:28:18.235Z,20.40
2019-03-20T19:30:44.279Z,20.40
2019-03-20T19:33:10.769Z,20.30
2019-03-20T19:35:37.196Z,20.30
2019-03-20T19:38:04.449Z,20.30
2019-03-20T19:40:30.560Z,20.30
2019-03-20T19:45:23.085Z,20.30
2019-03-20T19:47:49.136Z,20.20
2019-03-20T19:52:43.659Z,20.20
2019-03-20T19:57:42.048Z,20.20
2019-03-20T20:05:16.035Z,20.10
2019-03-20T20:07:41.955Z,20.10
2019-03-20T20:10:13.891Z,20.10
2019-03-20T20:12:40.026Z,20.10
2019-03-20T20:15:09.876Z,20.00
2019-03-20T20:17:36.262Z,20.00
2019-03-20T20:20:06.108Z,20.00
2019-03-20T20:22:32.488Z,20.00
2019-03-20T20:24:58.812Z,20.00
2019-03-20T20:27:25.144Z,19.90
2019-03-20T20:29:51.256Z,19.90
2019-03-20T20:32:17.313Z,19.90
2019-03-20T20:34:43.425Z,19.90
2019-03-20T20:37:09.574Z,19.90
2019-03-20T20:39:35.616Z,19.90
2019-03-20T20:42:01.997Z,19.90
2019-03-20T20:44:28.040Z,19.80
2019-03-20T20:46:54.152Z,19.80
2019-03-20T20:51:46.903Z,19.80
2019-03-20T20:54:13.439Z,19.70
2019-03-20T20:56:39.487Z,19.70
2019-03-20T20:59:05.591Z,19.70
2019-03-20T21:01:31.647Z,19.70
2019-03-20T21:03:57.688Z,19.70
2019-03-20T21:06:24.063Z,19.70
2019-03-20T21:08:50.275Z,19.70
2019-03-20T21:11:16.379Z,19.70
2019-03-20T21:13:42.429Z,19.60
2019-03-20T21:18:47.527Z,19.60
2019-03-20T21:24:17.427Z,19.60
2019-03-20T21:27:04.260Z,19.60
2019-03-20T21:29:58.467Z,19.60
2019-03-20T21:37:34.636Z,19.50
2019-03-20T21:40:00.779Z,19.50
2019-03-20T21:42:50.012Z,19.50
2019-03-20T21:45:25.961Z,19.50
2019-03-20T21:47:52.292Z,19.50
2019-03-20T21:50:41.768Z,19.40
2019-03-20T21:53:11.615Z,19.40
2019-03-20T21:56:14.984Z,19.40
2019-03-20T21:59:09.116Z,19.40
2019-03-20T22:01:55.837Z,19.30
2019-03-20T22:07:09.257Z,19.30
2019-03-20T22:09:54.040Z,19.30
2019-03-20T22:12:42.284Z,19.30
2019-03-20T22:15:12.135Z,19.30
2019-03-20T22:17:50.837Z,19.30
2019-03-20T22:20:22.711Z,19.20
2019-03-20T22:25:36.461Z,19.20
2019-03-20T22:28:24.717Z,19.20
2019-03-20T22:30:51.132Z,19.20
2019-03-20T22:33:54.877Z,19.20
2019-03-20T22:36:21.892Z,19.20
2019-03-20T22:39:09.644Z,19.10
2019-03-20T22:41:55.111Z,19.10
2019-03-20T22:44:22.075Z,19.10
2019-03-20T22:47:11.983Z,19.00
2019-03-20T22:49:54.072Z,19.10
2019-03-20T22:52:24.245Z,19.10
2019-03-20T22:55:30.093Z,19.00
2019-03-20T22:58:16.640Z,19.00
2019-03-20T23:00:45.795Z,19.00
2019-03-20T23:03:24.627Z,19.00
2019-03-20T23:05:51.505Z,19.00
2019-03-20T23:08:17.900Z,19.00
2019-03-20T23:10:48.143Z,18.90
2019-03-20T23:13:18.948Z,18.90
2019-03-20T23:15:42.532Z,18.90
2019-03-20T23:18:08.620Z,18.90
2019-03-20T23:20:34.666Z,18.90
2019-03-20T23:23:01.000Z,18.90
2019-03-20T23:25:27.180Z,18.80
2019-03-20T23:27:53.570Z,18.80
2019-03-20T23:30:26.079Z,18.80
2019-03-20T23:32:52.460Z,18.80
2019-03-20T23:35:18.789Z,18.70
2019-03-20T23:37:45.123Z,18.80
2019-03-20T23:40:14.864Z,18.80
2019-03-20T23:42:44.631Z,18.80
2019-03-20T23:52:35.741Z,18.70
2019-03-20T23:55:02.827Z,18.70
2019-03-20T23:59:56.022Z,18.70
